createdAt,value
2022-11-08T00:00:44.434Z,100529.47
2022-11-08T00:03:12.470Z,100539.63
2022-11-08T00:05:58.771Z,100534.56
2022-11-08T00:08:45.495Z,100543.19
2022-11-08T00:11:31.494Z,100543.13
2022-11-08T00:13:59.742Z,100536.84
2022-11-08T00:16:28.642Z,100543.78
2022-11-08T00:18:56.349Z,100537.91
2022-11-08T00:21:24.285Z,100539.13
2022-11-08T00:23:52.035Z,100537.34
2022-11-08T00:26:19.949Z,100533.25
2022-11-08T00:28:47.672Z,100542.25
2022-11-08T00:31:15.557Z,100544.78
2022-11-08T00:33:43.248Z,100538.19
2022-11-08T00:36:11.278Z,100535.56
2022-11-08T00:38:42.895Z,100537.34
2022-11-08T00:41:11.928Z,100546.00
2022-11-08T00:43:39.792Z,100531.47
2022-11-08T00:46:07.712Z,100537.59
2022-11-08T00:48:35.364Z,100546.06
2022-11-08T00:51:05.903Z,100533.91
2022-11-08T00:53:36.318Z,100526.31
2022-11-08T00:56:11.964Z,100533.91
2022-11-08T00:58:41.607Z,100530.38
2022-11-08T01:01:15.957Z,100527.88
2022-11-08T01:03:44.165Z,100528.03
2022-11-08T01:06:14.400Z,100532.25
2022-11-08T01:08:42.831Z,100528.97
2022-11-08T01:11:15.394Z,100526.91
2022-11-08T01:13:43.580Z,100531.50
2022-11-08T01:16:15.379Z,100527.16
2022-11-08T01:18:44.119Z,100528.94
2022-11-08T01:21:12.474Z,100517.78
2022-11-08T01:23:40.647Z,100518.00
2022-11-08T01:26:12.217Z,100513.75
2022-11-08T01:28:39.998Z,100519.06
2022-11-08T01:31:16.810Z,100517.38
2022-11-08T01:33:50.838Z,100518.97
2022-11-08T01:36:22.420Z,100519.84
2022-11-08T01:38:50.639Z,100517.44
2022-11-08T01:41:21.299Z,100514.81
2022-11-08T01:43:58.921Z,100520.00
2022-11-08T01:46:42.436Z,100515.53
2022-11-08T01:49:19.056Z,100522.47
2022-11-08T01:51:49.715Z,100518.91
2022-11-08T01:54:25.403Z,100526.66
2022-11-08T01:56:54.906Z,100527.47
2022-11-08T01:59:22.747Z,100511.06
2022-11-08T02:01:56.761Z,100513.56
2022-11-08T02:04:24.561Z,100516.13
2022-11-08T02:06:52.813Z,100518.69
2022-11-08T02:09:20.440Z,100513.56
2022-11-08T02:11:49.340Z,100526.50
2022-11-08T02:14:18.094Z,100516.84
2022-11-08T02:16:46.013Z,100523.16
2022-11-08T02:19:25.312Z,100517.91
2022-11-08T02:21:58.220Z,100524.84
2022-11-08T02:24:25.957Z,100508.53
2022-11-08T02:26:56.406Z,100523.91
2022-11-08T02:29:27.323Z,100520.34
2022-11-08T02:31:56.634Z,100520.78
2022-11-08T02:34:29.741Z,100518.28
2022-11-08T02:36:58.561Z,100515.69
2022-11-08T02:39:26.268Z,100514.50
2022-11-08T02:41:54.436Z,100512.13
2022-11-08T02:44:22.039Z,100519.66
2022-11-08T02:46:50.112Z,100508.41
2022-11-08T02:49:17.829Z,100507.69
2022-11-08T02:51:45.745Z,100507.75
2022-11-08T02:57:23.110Z,100510.34
2022-11-08T02:59:51.042Z,100516.41
2022-11-08T03:02:18.709Z,100513.88
2022-11-08T03:04:46.738Z,100501.53
2022-11-08T03:07:14.311Z,100508.25
2022-11-08T03:09:42.118Z,100506.53
2022-11-08T03:12:09.762Z,100511.69
2022-11-08T03:14:37.604Z,100509.91
2022-11-08T03:17:05.289Z,100517.78
2022-11-08T03:19:33.157Z,100512.56
2022-11-08T03:22:01.665Z,100522.56
2022-11-08T03:24:29.520Z,100521.09
2022-11-08T03:26:57.120Z,100518.31
2022-11-08T03:29:25.090Z,100517.34
2022-11-08T03:31:52.740Z,100518.25
2022-11-08T03:34:20.566Z,100519.06
2022-11-08T03:36:48.680Z,100511.19
2022-11-08T03:39:16.544Z,100519.75
2022-11-08T03:41:44.725Z,100519.69
2022-11-08T03:44:12.554Z,100524.84
2022-11-08T03:46:40.157Z,100519.81
2022-11-08T03:49:08.248Z,100528.28
2022-11-08T03:51:35.826Z,100526.53
2022-11-08T03:54:03.959Z,100536.06
2022-11-08T03:56:31.711Z,100533.56
2022-11-08T03:58:59.556Z,100531.09
2022-11-08T04:01:27.137Z,100528.63
2022-11-08T04:03:55.083Z,100527.66
2022-11-08T04:06:22.780Z,100532.13
2022-11-08T04:08:50.603Z,100528.06
2022-11-08T04:11:36.732Z,100531.97
2022-11-08T04:14:23.415Z,100524.56
2022-11-08T04:16:51.058Z,100522.75
2022-11-08T04:19:37.703Z,100514.06
2022-11-08T04:22:06.448Z,100523.69
2022-11-08T04:24:34.409Z,100516.78
2022-11-08T04:27:02.767Z,100516.81
2022-11-08T04:29:31.006Z,100515.19
2022-11-08T04:31:58.625Z,100508.34
2022-11-08T04:34:26.505Z,100524.06
2022-11-08T04:36:55.459Z,100516.06
2022-11-08T04:39:23.277Z,100516.94
2022-11-08T04:41:51.027Z,100521.28
2022-11-08T04:44:18.904Z,100527.41
2022-11-08T04:46:46.476Z,100527.53
2022-11-08T04:49:14.301Z,100522.13
2022-11-08T04:51:41.820Z,100528.06
2022-11-08T04:54:11.780Z,100527.22
2022-11-08T04:56:41.648Z,100525.34
2022-11-08T04:59:12.017Z,100519.09
2022-11-08T05:01:40.227Z,100520.03
2022-11-08T05:04:08.266Z,100517.34
2022-11-08T05:06:35.835Z,100510.31
2022-11-08T05:09:04.018Z,100514.69
2022-11-08T05:11:31.998Z,100512.31
2022-11-08T05:13:59.951Z,100511.56
2022-11-08T05:16:30.144Z,100515.06
2022-11-08T05:18:58.334Z,100506.44
2022-11-08T05:21:45.608Z,100509.97
2022-11-08T05:24:16.591Z,100508.13
2022-11-08T05:26:47.114Z,100507.47
2022-11-08T05:29:16.294Z,100514.75
2022-11-08T05:31:44.424Z,100533.41
2022-11-08T05:34:12.373Z,100529.50
2022-11-08T05:36:39.884Z,100530.69
2022-11-08T05:39:07.787Z,100533.41
2022-11-08T05:41:35.470Z,100531.03
2022-11-08T05:44:03.290Z,100538.13
2022-11-08T05:46:30.859Z,100541.72
2022-11-08T05:48:58.969Z,100552.19
2022-11-08T05:51:26.588Z,100551.50
2022-11-08T05:53:54.386Z,100540.19
2022-11-08T05:56:22.226Z,100549.00
2022-11-08T05:58:50.180Z,100548.16
2022-11-08T06:01:19.709Z,100549.03
2022-11-08T06:03:48.559Z,100554.25
2022-11-08T06:06:21.861Z,100557.72
2022-11-08T06:08:51.540Z,100552.63
2022-11-08T06:11:24.246Z,100565.31
2022-11-08T06:13:53.436Z,100557.59
2022-11-08T06:16:23.571Z,100560.03
2022-11-08T06:18:51.799Z,100562.66
2022-11-08T06:21:21.362Z,100557.13
2022-11-08T06:23:51.816Z,100561.16
2022-11-08T06:26:19.437Z,100570.50
2022-11-08T06:28:47.359Z,100568.47
2022-11-08T06:31:14.856Z,100572.47
2022-11-08T06:33:42.736Z,100568.25
2022-11-08T06:36:10.399Z,100558.78
2022-11-08T06:38:38.310Z,100563.47
2022-11-08T06:41:05.914Z,100567.41
2022-11-08T06:43:34.084Z,100563.44
2022-11-08T06:46:04.365Z,100559.66
2022-11-08T06:48:35.931Z,100548.47
2022-11-08T06:51:04.151Z,100558.38
2022-11-08T06:53:32.780Z,100558.03
2022-11-08T06:56:01.723Z,100566.25
2022-11-08T06:58:30.541Z,100572.28
2022-11-08T07:00:58.801Z,100569.16
2022-11-08T07:03:26.657Z,100569.13
2022-11-08T07:05:54.672Z,100573.91
2022-11-08T07:08:24.277Z,100573.84
2022-11-08T07:10:52.206Z,100585.38
2022-11-08T07:13:20.541Z,100581.56
2022-11-08T07:15:48.816Z,100585.41
2022-11-08T07:18:18.422Z,100582.84
2022-11-08T07:20:46.202Z,100583.47
2022-11-08T07:23:14.580Z,100583.75
2022-11-08T07:25:42.324Z,100589.59
2022-11-08T07:28:18.512Z,100590.00
2022-11-08T07:30:47.384Z,100588.13
2022-11-08T07:33:16.886Z,100590.84
2022-11-08T07:35:47.140Z,100594.03
2022-11-08T07:38:15.151Z,100588.31
2022-11-08T07:40:42.997Z,100590.75
2022-11-08T07:43:23.366Z,100594.69
2022-11-08T07:45:59.792Z,100589.84
2022-11-08T07:48:28.837Z,100603.75
2022-11-08T07:50:56.457Z,100598.78
2022-11-08T07:53:24.441Z,100595.31
2022-11-08T07:55:52.319Z,100593.09
2022-11-08T07:58:20.318Z,100591.06
2022-11-08T08:00:49.952Z,100598.56
2022-11-08T08:03:18.754Z,100593.94
2022-11-08T08:05:57.930Z,100585.06
2022-11-08T08:08:27.929Z,100577.53
2022-11-08T08:10:59.940Z,100581.38
2022-11-08T08:13:28.397Z,100588.53
2022-11-08T08:16:00.323Z,100585.16
2022-11-08T08:18:29.766Z,100579.63
2022-11-08T08:20:57.817Z,100588.91
2022-11-08T08:23:26.205Z,100585.34
2022-11-08T08:25:53.963Z,100587.31
2022-11-08T08:28:21.846Z,100584.13
2022-11-08T08:30:49.478Z,100593.38
2022-11-08T08:33:34.718Z,100587.13
2022-11-08T08:36:02.694Z,100592.94
2022-11-08T08:38:36.790Z,100596.41
2022-11-08T08:41:07.692Z,100597.94
2022-11-08T08:43:35.487Z,100587.53
2022-11-08T08:46:04.815Z,100590.47
2022-11-08T08:48:33.590Z,100587.81
2022-11-08T08:51:01.236Z,100594.78
2022-11-08T08:53:29.057Z,100596.78
2022-11-08T08:55:56.740Z,100596.94
2022-11-08T08:58:24.950Z,100593.78
2022-11-08T09:03:40.293Z,100611.34
2022-11-08T09:06:08.168Z,100610.00
2022-11-08T09:08:36.392Z,100607.59
2022-11-08T09:11:04.537Z,100612.94
2022-11-08T09:13:32.760Z,100604.84
2022-11-08T09:16:02.730Z,100598.59
2022-11-08T09:18:31.216Z,100604.97
2022-11-08T09:20:59.054Z,100613.25
2022-11-08T09:23:27.247Z,100601.69
2022-11-08T09:25:59.889Z,100599.50
2022-11-08T09:28:31.426Z,100598.38
2022-11-08T09:31:09.064Z,100595.56
2022-11-08T09:33:39.178Z,100602.75
2022-11-08T09:36:08.852Z,100599.75
2022-11-08T09:38:36.726Z,100600.53
2022-11-08T09:41:17.111Z,100604.00
2022-11-08T09:43:56.470Z,100602.09
2022-11-08T09:46:35.229Z,100597.53
2022-11-08T09:49:06.332Z,100599.31
2022-11-08T09:51:36.277Z,100593.28
2022-11-08T09:54:08.644Z,100597.78
2022-11-08T09:56:38.289Z,100598.53
2022-11-08T09:59:28.050Z,100599.66
2022-11-08T10:01:55.724Z,100592.47
2022-11-08T10:04:29.918Z,100595.69
2022-11-08T10:07:24.151Z,100602.13
2022-11-08T10:10:22.801Z,100589.25
2022-11-08T10:13:17.141Z,100584.16
2022-11-08T10:15:45.034Z,100584.13
2022-11-08T10:18:27.779Z,100581.66
2022-11-08T10:20:55.706Z,100588.09
2022-11-08T10:23:46.574Z,100584.34
2022-11-08T10:26:25.665Z,100582.44
2022-11-08T10:29:06.753Z,100578.97
2022-11-08T10:31:37.486Z,100575.22
2022-11-08T10:34:17.760Z,100573.22
2022-11-08T10:36:49.219Z,100568.88
2022-11-08T10:39:25.632Z,100581.66
2022-11-08T10:42:15.855Z,100573.00
2022-11-08T10:44:44.110Z,100563.13
2022-11-08T10:47:28.710Z,100566.44
2022-11-08T10:50:02.476Z,100560.72
2022-11-08T10:52:46.666Z,100562.66
2022-11-08T10:55:24.943Z,100565.38
2022-11-08T10:57:52.805Z,100556.94
2022-11-08T11:00:23.408Z,100556.44
2022-11-08T11:03:01.081Z,100544.75
2022-11-08T11:05:40.781Z,100551.06
2022-11-08T11:08:08.670Z,100543.31
2022-11-08T11:10:44.637Z,100549.94
2022-11-08T11:13:18.479Z,100541.44
2022-11-08T11:16:04.183Z,100542.38
2022-11-08T11:18:39.362Z,100540.59
2022-11-08T11:21:23.045Z,100530.72
2022-11-08T11:24:07.712Z,100535.34
2022-11-08T11:26:45.690Z,100532.56
2022-11-08T11:29:21.525Z,100525.78
2022-11-08T11:31:51.568Z,100525.66
2022-11-08T11:34:19.432Z,100529.75
2022-11-08T11:37:12.696Z,100525.81
2022-11-08T11:39:45.889Z,100528.13
2022-11-08T11:42:46.691Z,100527.81
2022-11-08T11:45:23.870Z,100531.38
2022-11-08T11:47:57.713Z,100532.72
2022-11-08T11:50:29.756Z,100527.34
2022-11-08T11:52:59.195Z,100518.75
2022-11-08T11:55:47.076Z,100520.22
2022-11-08T11:58:32.992Z,100524.47
2022-11-08T12:01:39.917Z,100518.00
2022-11-08T12:04:21.479Z,100533.16
2022-11-08T12:06:52.376Z,100525.75
2022-11-08T12:09:47.331Z,100531.16
2022-11-08T12:12:33.409Z,100526.03
2022-11-08T12:15:23.898Z,100524.66
2022-11-08T12:18:03.726Z,100517.84
2022-11-08T12:20:54.017Z,100521.94
2022-11-08T12:23:34.014Z,100527.59
2022-11-08T12:26:06.771Z,100525.56
2022-11-08T12:28:46.048Z,100515.16
2022-11-08T12:31:40.145Z,100516.03
2022-11-08T12:34:35.503Z,100516.19
2022-11-08T12:37:16.126Z,100511.84
2022-11-08T12:39:55.762Z,100514.25
2022-11-08T12:42:44.179Z,100513.00
2022-11-08T12:45:43.032Z,100504.78
2022-11-08T12:48:28.741Z,100507.94
2022-11-08T12:51:02.109Z,100500.09
2022-11-08T12:53:29.733Z,100507.09
2022-11-08T12:55:58.869Z,100507.53
2022-11-08T12:58:36.664Z,100508.69
2022-11-08T13:01:15.322Z,100508.97
2022-11-08T13:03:42.984Z,100509.47
2022-11-08T13:06:24.258Z,100509.94
2022-11-08T13:09:09.107Z,100505.59
2022-11-08T13:11:52.715Z,100511.50
2022-11-08T13:14:21.905Z,100512.41
2022-11-08T13:17:08.570Z,100519.25
2022-11-08T13:20:05.782Z,100507.44
2022-11-08T13:22:40.598Z,100514.59
2022-11-08T13:25:28.969Z,100504.34
2022-11-08T13:27:57.117Z,100497.84
2022-11-08T13:30:25.410Z,100495.34
2022-11-08T13:32:59.300Z,100496.16
2022-11-08T13:36:13.918Z,100502.66
2022-11-08T13:38:58.919Z,100491.75
2022-11-08T13:41:27.268Z,100474.28
2022-11-08T13:43:56.250Z,100480.84
2022-11-08T13:46:26.923Z,100484.72
2022-11-08T13:49:06.014Z,100479.72
2022-11-08T13:51:41.601Z,100480.22
2022-11-08T13:54:26.233Z,100477.09
2022-11-08T13:57:01.883Z,100478.09
2022-11-08T13:59:32.512Z,100469.03
2022-11-08T14:02:05.592Z,100472.59
2022-11-08T14:04:40.862Z,100471.81
2022-11-08T14:07:24.874Z,100463.44
2022-11-08T14:10:17.765Z,100480.09
2022-11-08T14:12:54.565Z,100474.81
2022-11-08T14:15:39.574Z,100477.66
2022-11-08T14:18:32.610Z,100478.38
2022-11-08T14:21:00.357Z,100476.25
2022-11-08T14:23:40.628Z,100478.22
2022-11-08T14:26:18.146Z,100487.72
2022-11-08T14:28:47.748Z,100486.41
2022-11-08T14:31:34.930Z,100488.66
2022-11-08T14:34:03.017Z,100481.50
2022-11-08T14:36:31.970Z,100483.75
2022-11-08T14:39:12.150Z,100480.88
2022-11-08T14:41:44.835Z,100477.88
2022-11-08T14:44:16.069Z,100487.22
2022-11-08T14:46:43.724Z,100478.16
2022-11-08T14:49:29.372Z,100483.78
2022-11-08T14:52:14.187Z,100486.06
2022-11-08T14:54:47.565Z,100485.69
2022-11-08T14:57:31.837Z,100496.59
2022-11-08T15:00:21.724Z,100493.81
2022-11-08T15:03:03.228Z,100493.47
2022-11-08T15:05:54.195Z,100499.28
2022-11-08T15:08:52.917Z,100492.06
2022-11-08T15:11:31.007Z,100488.28
2022-11-08T15:14:05.681Z,100484.41
2022-11-08T15:16:45.081Z,100484.91
2022-11-08T15:19:31.452Z,100478.16
2022-11-08T15:22:20.286Z,100478.91
2022-11-08T15:24:47.925Z,100480.72
2022-11-08T15:27:17.197Z,100489.81
2022-11-08T15:30:08.815Z,100485.59
2022-11-08T15:32:39.711Z,100477.47
2022-11-08T15:35:15.643Z,100482.03
2022-11-08T15:37:43.829Z,100485.00
2022-11-08T15:40:31.860Z,100487.97
2022-11-08T15:43:00.323Z,100481.38
2022-11-08T15:45:32.459Z,100480.81
2022-11-08T15:48:21.279Z,100473.22
2022-11-08T15:50:49.963Z,100475.47
2022-11-08T15:53:18.276Z,100470.66
2022-11-08T15:56:02.046Z,100473.53
2022-11-08T15:58:32.619Z,100474.63
2022-11-08T16:01:03.042Z,100471.19
2022-11-08T16:03:31.272Z,100483.50
2022-11-08T16:05:58.978Z,100478.69
2022-11-08T16:08:27.147Z,100484.25
2022-11-08T16:10:59.949Z,100482.66
2022-11-08T16:13:34.446Z,100477.66
2022-11-08T16:16:04.100Z,100478.34
2022-11-08T16:18:34.236Z,100484.63
2022-11-08T16:21:02.175Z,100489.00
2022-11-08T16:23:30.060Z,100484.84
2022-11-08T16:26:00.861Z,100480.53
2022-11-08T16:28:38.253Z,100488.28
2022-11-08T16:31:20.443Z,100487.66
2022-11-08T16:33:48.655Z,100482.53
2022-11-08T16:36:24.469Z,100485.16
2022-11-08T16:38:55.004Z,100493.72
2022-11-08T16:41:23.999Z,100485.09
2022-11-08T16:43:52.112Z,100488.44
2022-11-08T16:46:21.503Z,100489.13
2022-11-08T16:48:56.861Z,100475.97
2022-11-08T16:51:28.232Z,100489.94
2022-11-08T16:53:56.124Z,100484.03
2022-11-08T16:56:24.096Z,100487.53
2022-11-08T16:58:51.915Z,100484.00
2022-11-08T17:01:23.288Z,100486.78
2022-11-08T17:03:51.241Z,100492.84
2022-11-08T17:06:19.132Z,100496.47
2022-11-08T17:08:47.507Z,100488.84
2022-11-08T17:11:19.563Z,100495.97
2022-11-08T17:13:47.998Z,100490.91
2022-11-08T17:16:16.217Z,100472.91
2022-11-08T17:18:47.432Z,100492.00
2022-11-08T17:21:43.011Z,100492.00
2022-11-08T17:24:05.790Z,100484.28
2022-11-08T17:26:33.398Z,100489.63
2022-11-08T17:29:01.277Z,100478.28
2022-11-08T17:31:28.868Z,100489.63
2022-11-08T17:33:56.786Z,100480.97
2022-11-08T17:36:24.411Z,100484.31
2022-11-08T17:38:52.344Z,100477.38
2022-11-08T17:41:19.962Z,100477.91
2022-11-08T17:43:48.006Z,100481.94
2022-11-08T17:46:15.774Z,100481.78
2022-11-08T17:48:43.668Z,100492.47
2022-11-08T17:51:13.097Z,100485.47
2022-11-08T17:53:41.320Z,100484.91
2022-11-08T17:56:12.376Z,100490.25
2022-11-08T17:58:41.270Z,100491.16
2022-11-08T18:01:09.556Z,100492.16
2022-11-08T18:03:37.601Z,100485.94
2022-11-08T18:06:11.290Z,100491.94
2022-11-08T18:08:39.443Z,100486.28
2022-11-08T18:11:07.488Z,100496.88
2022-11-08T18:13:35.912Z,100491.66
2022-11-08T18:16:18.474Z,100485.75
2022-11-08T18:18:47.210Z,100495.00
2022-11-08T18:21:15.680Z,100486.56
2022-11-08T18:23:46.396Z,100490.81
2022-11-08T18:26:15.895Z,100496.72
2022-11-08T18:28:44.997Z,100490.75
2022-11-08T18:31:18.729Z,100499.94
2022-11-08T18:33:47.262Z,100486.19
2022-11-08T18:36:17.980Z,100491.78
2022-11-08T18:38:46.186Z,100486.72
2022-11-08T18:41:22.446Z,100490.28
2022-11-08T18:43:50.469Z,100485.28
2022-11-08T18:46:21.436Z,100458.31
2022-11-08T18:48:50.420Z,100486.56
2022-11-08T18:51:20.251Z,100486.66
2022-11-08T18:53:48.485Z,100487.59
2022-11-08T18:56:16.445Z,100489.38
2022-11-08T18:58:45.471Z,100485.88
2022-11-08T19:01:13.533Z,100493.59
2022-11-08T19:03:41.768Z,100492.63
2022-11-08T19:06:09.928Z,100488.72
2022-11-08T19:08:37.914Z,100491.31
2022-11-08T19:11:09.502Z,100483.28
2022-11-08T19:13:39.483Z,100487.19
2022-11-08T19:16:14.696Z,100489.91
2022-11-08T19:18:43.832Z,100493.38
2022-11-08T19:21:17.729Z,100490.97
2022-11-08T19:23:46.313Z,100492.34
2022-11-08T19:26:22.213Z,100496.84
2022-11-08T19:28:51.309Z,100495.97
2022-11-08T19:31:21.495Z,100491.50
2022-11-08T19:33:52.196Z,100497.91
2022-11-08T19:36:22.189Z,100506.69
2022-11-08T19:38:50.384Z,100499.53
2022-11-08T19:41:20.580Z,100509.31
2022-11-08T19:43:49.835Z,100510.38
2022-11-08T19:46:23.925Z,100507.03
2022-11-08T19:48:52.656Z,100508.69
2022-11-08T19:51:22.822Z,100512.44
2022-11-08T19:53:53.882Z,100513.31
2022-11-08T19:56:29.229Z,100512.28
2022-11-08T19:59:05.962Z,100501.22
2022-11-08T20:01:36.338Z,100506.16
2022-11-08T20:04:06.688Z,100510.56
2022-11-08T20:06:35.287Z,100507.28
2022-11-08T20:09:04.375Z,100513.91
2022-11-08T20:11:35.902Z,100519.13
2022-11-08T20:14:05.284Z,100503.22
2022-11-08T20:16:36.490Z,100517.75
2022-11-08T20:19:10.766Z,100514.41
2022-11-08T20:21:42.027Z,100512.69
2022-11-08T20:24:11.581Z,100505.94
2022-11-08T20:26:41.455Z,100504.97
2022-11-08T20:29:09.800Z,100509.47
2022-11-08T20:31:38.821Z,100505.69
2022-11-08T20:34:10.198Z,100503.84
2022-11-08T20:36:38.937Z,100501.44
2022-11-08T20:39:08.115Z,100493.69
2022-11-08T20:41:37.747Z,100495.44
2022-11-08T20:44:06.785Z,100498.72
2022-11-08T20:46:36.007Z,100494.50
2022-11-08T20:49:05.164Z,100498.00
2022-11-08T20:51:33.321Z,100493.41
2022-11-08T20:54:02.025Z,100488.47
2022-11-08T20:56:33.622Z,100489.13
2022-11-08T20:59:01.782Z,100491.69
2022-11-08T21:01:32.605Z,100487.56
2022-11-08T21:04:01.154Z,100488.59
2022-11-08T21:06:32.943Z,100493.00
2022-11-08T21:09:23.365Z,100492.16
2022-11-08T21:11:51.787Z,100480.91
2022-11-08T21:14:19.299Z,100486.16
2022-11-08T21:17:15.130Z,100486.09
2022-11-08T21:19:34.553Z,100491.72
2022-11-08T21:22:17.027Z,100483.09
2022-11-08T21:24:47.644Z,100482.16
2022-11-08T21:27:16.373Z,100476.56
2022-11-08T21:29:44.289Z,100485.41
2022-11-08T21:32:11.897Z,100480.06
2022-11-08T21:34:45.483Z,100483.91
2022-11-08T21:37:13.963Z,100483.69
2022-11-08T21:39:42.058Z,100484.69
2022-11-08T21:42:09.689Z,100485.72
2022-11-08T21:44:37.502Z,100487.56
2022-11-08T21:47:05.046Z,100485.97
2022-11-08T21:49:32.831Z,100486.72
2022-11-08T21:52:00.407Z,100491.91
2022-11-08T21:54:28.303Z,100494.31
2022-11-08T21:56:55.739Z,100485.56
2022-11-08T21:59:23.524Z,100484.06
2022-11-08T22:01:51.003Z,100481.50
2022-11-08T22:04:18.874Z,100484.19
2022-11-08T22:06:47.794Z,100478.84
2022-11-08T22:09:15.928Z,100485.56
2022-11-08T22:11:43.605Z,100480.75
2022-11-08T22:14:11.523Z,100482.53
2022-11-08T22:16:39.176Z,100473.59
2022-11-08T22:19:09.568Z,100482.19
2022-11-08T22:21:41.344Z,100473.00
2022-11-08T22:24:22.557Z,100482.66
2022-11-08T22:26:51.948Z,100472.41
2022-11-08T22:29:19.905Z,100475.31
2022-11-08T22:31:47.965Z,100475.41
2022-11-08T22:34:16.085Z,100475.59
2022-11-08T22:36:45.580Z,100480.06
2022-11-08T22:39:16.918Z,100488.66
2022-11-08T22:41:46.134Z,100479.16
2022-11-08T22:44:14.906Z,100480.03
2022-11-08T22:46:43.396Z,100480.94
2022-11-08T22:49:12.164Z,100475.66
2022-11-08T22:51:40.607Z,100482.03
2022-11-08T22:54:08.935Z,100483.06
2022-11-08T22:56:36.594Z,100495.41
2022-11-08T22:59:04.880Z,100490.22
2022-11-08T23:01:32.741Z,100491.25
2022-11-08T23:04:00.621Z,100493.78
2022-11-08T23:06:28.467Z,100498.28
2022-11-08T23:08:56.384Z,100497.38
2022-11-08T23:11:42.540Z,100490.72
2022-11-08T23:14:33.964Z,100489.03
2022-11-08T23:17:03.349Z,100488.25
2022-11-08T23:19:50.024Z,100489.16
2022-11-08T23:22:36.551Z,100488.25
2022-11-08T23:25:04.817Z,100483.13
2022-11-08T23:27:50.960Z,100472.59
2022-11-08T23:30:38.113Z,100480.28
2022-11-08T23:33:06.920Z,100478.56
2022-11-08T23:35:35.211Z,100477.78
2022-11-08T23:38:02.954Z,100476.13
2022-11-08T23:40:49.444Z,100480.34
2022-11-08T23:43:38.092Z,100472.59
2022-11-08T23:46:11.951Z,100476.13
2022-11-08T23:48:40.778Z,100477.00
2022-11-08T23:51:08.959Z,100471.75
2022-11-08T23:53:37.442Z,100468.31
2022-11-08T23:56:05.903Z,100466.47
2022-11-08T23:58:33.987Z,100465.63
